16°C Temp
6°C Dewpoint
52% Humidity
Temperature
11 KM/H
7 MPH
6 KTS
290°
West North
West

Wind Speed
Partly Cloudy
Conditions
Pressure 1010.82 (hPa) - 29.85 (in)
Visibility 9.9 (mi) - 16.0 (km)

Current Conditions
KSJC
Location 9(km)
Metar :KSJC 040053Z 29006KT 10SM FEW009 SCT080 BKN140 16/06 A2985 RMK AO2 SLP108 T01560056
Thu 4th March 01:53 am

Airport
  Metar Aviation API Data Provided by https://www.checkwx.com/ PHP scripts by weather34.com ©2021